createdAt,value
2023-09-09T00:02:06.765Z,54.60
2023-09-09T00:04:34.308Z,54.80
2023-09-09T00:07:04.412Z,54.90
2023-09-09T00:09:32.179Z,55.00
2023-09-09T00:11:59.835Z,55.00
2023-09-09T00:14:29.424Z,55.00
2023-09-09T00:16:58.407Z,54.90
2023-09-09T00:19:26.229Z,54.90
2023-09-09T00:21:53.674Z,54.90
2023-09-09T00:24:21.150Z,54.90
2023-09-09T00:26:48.426Z,54.90
2023-09-09T00:29:15.957Z,54.80
2023-09-09T00:31:43.337Z,54.80
2023-09-09T00:34:10.923Z,54.80
2023-09-09T00:36:38.375Z,54.80
2023-09-09T00:39:06.048Z,54.80
2023-09-09T00:41:33.348Z,54.70
2023-09-09T00:44:00.798Z,54.70
2023-09-09T00:46:28.276Z,54.60
2023-09-09T00:48:55.887Z,54.60
2023-09-09T00:51:24.130Z,54.70
2023-09-09T00:53:51.671Z,54.60
2023-09-09T00:56:18.957Z,54.50
2023-09-09T00:58:46.510Z,54.60
2023-09-09T01:01:14.024Z,54.60
2023-09-09T01:03:42.240Z,54.60
2023-09-09T01:06:10.137Z,54.60
2023-09-09T01:08:39.059Z,54.60
2023-09-09T01:11:07.075Z,54.60
2023-09-09T01:13:36.407Z,54.60
2023-09-09T01:16:04.232Z,54.60
2023-09-09T01:18:36.002Z,54.50
2023-09-09T01:21:09.493Z,54.50
2023-09-09T01:23:38.266Z,54.50
2023-09-09T01:26:05.793Z,54.50
2023-09-09T01:28:33.344Z,54.50
2023-09-09T01:31:01.322Z,55.10
2023-09-09T01:33:28.862Z,54.50
2023-09-09T01:35:56.224Z,54.50
2023-09-09T01:38:24.549Z,54.50
2023-09-09T01:40:51.875Z,54.50
2023-09-09T01:43:19.323Z,54.40
2023-09-09T01:45:46.835Z,54.40
2023-09-09T01:48:14.267Z,54.40
2023-09-09T01:50:45.039Z,54.30
2023-09-09T01:53:13.049Z,54.40
2023-09-09T01:55:40.678Z,54.40
2023-09-09T01:58:08.190Z,54.40
2023-09-09T02:00:35.500Z,54.40
2023-09-09T02:03:05.002Z,54.40
2023-09-09T02:05:35.104Z,54.50
2023-09-09T02:08:02.491Z,54.30
2023-09-09T02:10:29.918Z,54.50
2023-09-09T02:12:57.421Z,54.40
2023-09-09T02:15:26.872Z,54.50
2023-09-09T02:17:54.277Z,54.50
2023-09-09T02:20:21.723Z,54.60
2023-09-09T02:22:49.089Z,54.70
2023-09-09T02:25:16.504Z,54.80
2023-09-09T02:27:43.762Z,55.30
2023-09-09T02:30:12.699Z,55.40
2023-09-09T02:32:40.660Z,55.60
2023-09-09T02:35:10.182Z,55.80
2023-09-09T02:37:37.655Z,55.90
2023-09-09T02:40:05.659Z,55.90
2023-09-09T02:42:33.123Z,56.10
2023-09-09T02:45:00.714Z,56.10
2023-09-09T02:47:28.950Z,56.20
2023-09-09T02:49:56.625Z,56.10
2023-09-09T02:52:24.784Z,56.00
2023-09-09T02:54:52.590Z,55.60
2023-09-09T02:57:19.971Z,55.70
2023-09-09T02:59:47.783Z,55.90
2023-09-09T03:02:15.864Z,56.10
2023-09-09T03:04:43.592Z,56.10
2023-09-09T03:07:11.058Z,57.10
2023-09-09T03:09:38.563Z,56.50
2023-09-09T03:12:08.408Z,56.80
2023-09-09T03:14:36.169Z,56.80
2023-09-09T03:17:04.295Z,57.00
2023-09-09T03:19:32.689Z,57.10
2023-09-09T03:22:00.086Z,56.90
2023-09-09T03:24:28.232Z,57.10
2023-09-09T03:26:55.842Z,57.10
2023-09-09T03:29:24.002Z,57.00
2023-09-09T03:31:52.505Z,57.30
2023-09-09T03:34:20.037Z,57.50
2023-09-09T03:36:48.226Z,57.30
2023-09-09T03:39:16.526Z,57.50
2023-09-09T03:41:43.892Z,57.60
2023-09-09T03:44:12.242Z,57.60
2023-09-09T03:46:40.122Z,57.60
2023-09-09T03:49:07.668Z,58.00
2023-09-09T03:51:35.112Z,58.00
2023-09-09T03:54:02.529Z,58.00
2023-09-09T03:56:30.155Z,58.20
2023-09-09T03:58:58.139Z,58.30
2023-09-09T04:01:27.237Z,58.40
2023-09-09T04:03:54.827Z,58.30
2023-09-09T04:06:22.409Z,58.40
2023-09-09T04:08:56.482Z,58.30
2023-09-09T04:11:24.942Z,58.40
2023-09-09T04:13:52.996Z,58.50
2023-09-09T04:16:20.848Z,58.60
2023-09-09T04:18:48.729Z,58.70
2023-09-09T04:21:18.593Z,58.80
2023-09-09T04:23:45.976Z,58.80
2023-09-09T04:26:13.577Z,58.80
2023-09-09T04:28:41.528Z,59.10
2023-09-09T04:31:09.501Z,59.30
2023-09-09T04:33:40.765Z,59.10
2023-09-09T04:36:09.930Z,59.10
2023-09-09T04:38:39.780Z,59.20
2023-09-09T04:41:08.896Z,59.40
2023-09-09T04:43:36.563Z,59.40
2023-09-09T04:46:04.166Z,59.50
2023-09-09T04:48:32.346Z,59.40
2023-09-09T04:51:00.612Z,59.40
2023-09-09T04:53:28.699Z,59.60
2023-09-09T04:55:56.711Z,59.40
2023-09-09T04:58:24.120Z,59.20
2023-09-09T05:00:51.760Z,59.30
2023-09-09T05:03:19.286Z,59.30
2023-09-09T05:05:46.737Z,59.50
2023-09-09T05:08:14.006Z,59.40
2023-09-09T05:10:41.694Z,59.50
2023-09-09T05:13:09.080Z,59.50
2023-09-09T05:15:36.690Z,59.70
2023-09-09T05:18:04.961Z,59.60
2023-09-09T05:20:32.407Z,59.70
2023-09-09T05:22:59.732Z,59.50
2023-09-09T05:25:27.432Z,59.70
2023-09-09T05:27:54.711Z,59.60
2023-09-09T05:30:22.417Z,60.10
2023-09-09T05:32:50.114Z,59.90
2023-09-09T05:35:17.887Z,59.80
2023-09-09T05:37:46.854Z,60.00
2023-09-09T05:40:14.573Z,60.30
2023-09-09T05:42:42.085Z,60.50
2023-09-09T05:45:10.497Z,60.20
2023-09-09T05:47:39.102Z,60.10
2023-09-09T05:50:07.067Z,60.40
2023-09-09T05:52:35.880Z,60.50
2023-09-09T05:55:04.457Z,60.80
2023-09-09T05:57:33.718Z,60.80
2023-09-09T06:00:03.407Z,60.90
2023-09-09T06:02:40.274Z,60.90
2023-09-09T06:05:09.264Z,61.10
2023-09-09T06:07:39.776Z,61.30
2023-09-09T06:10:09.543Z,61.30
2023-09-09T06:12:37.325Z,61.50
2023-09-09T06:15:05.716Z,62.50
2023-09-09T06:17:33.266Z,61.60
2023-09-09T06:20:00.991Z,61.60
2023-09-09T06:22:28.809Z,61.70
2023-09-09T06:24:56.232Z,61.60
2023-09-09T06:27:23.560Z,61.50
2023-09-09T06:29:50.969Z,61.10
2023-09-09T06:32:18.815Z,61.00
2023-09-09T06:34:46.470Z,60.90
2023-09-09T06:37:14.008Z,60.90
2023-09-09T06:39:41.369Z,60.80
2023-09-09T06:42:08.717Z,60.60
2023-09-09T06:44:36.710Z,60.70
2023-09-09T06:47:04.064Z,60.50
2023-09-09T06:49:31.524Z,60.40
2023-09-09T06:51:58.948Z,60.70
2023-09-09T06:54:26.511Z,60.10
2023-09-09T06:56:53.777Z,60.20
2023-09-09T06:59:21.187Z,60.40
2023-09-09T07:01:48.872Z,60.40
2023-09-09T07:04:16.427Z,60.50
2023-09-09T07:06:55.941Z,60.40
2023-09-09T07:09:31.259Z,60.20
2023-09-09T07:12:00.564Z,60.40
2023-09-09T07:14:28.001Z,60.30
2023-09-09T07:16:55.309Z,60.00
2023-09-09T07:19:22.850Z,59.60
2023-09-09T07:21:50.166Z,59.50
2023-09-09T07:24:17.544Z,59.10
2023-09-09T07:26:44.980Z,58.60
2023-09-09T07:29:12.441Z,58.40
2023-09-09T07:31:40.523Z,58.20
2023-09-09T07:34:08.158Z,58.30
2023-09-09T07:36:36.180Z,57.70
2023-09-09T07:39:03.539Z,57.10
2023-09-09T07:41:30.910Z,57.20
2023-09-09T07:43:58.321Z,57.60
2023-09-09T07:46:25.689Z,56.80
2023-09-09T07:48:53.199Z,56.80
2023-09-09T07:51:21.667Z,56.20
2023-09-09T07:53:49.261Z,55.80
2023-09-09T07:56:16.589Z,56.10
2023-09-09T07:58:44.102Z,55.90
2023-09-09T08:01:11.825Z,55.30
2023-09-09T08:03:40.051Z,55.30
2023-09-09T08:06:07.919Z,54.40
2023-09-09T08:08:36.992Z,54.10
2023-09-09T08:11:05.179Z,54.30
2023-09-09T08:13:33.100Z,53.70
2023-09-09T08:16:00.488Z,53.50
2023-09-09T08:18:28.429Z,53.10
2023-09-09T08:20:55.741Z,52.70
2023-09-09T08:23:24.068Z,52.80
2023-09-09T08:25:51.631Z,52.40
2023-09-09T08:28:20.563Z,52.30
2023-09-09T08:30:48.552Z,51.90
2023-09-09T08:33:16.032Z,51.70
2023-09-09T08:35:43.275Z,51.10
2023-09-09T08:38:10.662Z,50.90
2023-09-09T08:40:51.352Z,50.80
2023-09-09T08:43:25.290Z,50.10
2023-09-09T08:46:08.772Z,50.70
2023-09-09T08:48:39.029Z,49.60
2023-09-09T08:51:07.519Z,49.50
2023-09-09T08:53:37.263Z,49.60
2023-09-09T08:56:05.247Z,49.40
2023-09-09T08:58:32.793Z,49.20
2023-09-09T09:01:01.242Z,49.00
2023-09-09T09:03:29.147Z,48.90
2023-09-09T09:05:58.138Z,49.30
2023-09-09T09:08:25.716Z,48.10
2023-09-09T09:10:53.153Z,48.10
2023-09-09T09:13:20.390Z,47.40
2023-09-09T09:15:48.132Z,46.90
2023-09-09T09:18:15.752Z,47.20
2023-09-09T09:20:43.739Z,47.20
2023-09-09T09:23:13.549Z,46.60
2023-09-09T09:25:43.546Z,46.50
2023-09-09T09:28:10.846Z,46.60
2023-09-09T09:30:38.249Z,46.30
2023-09-09T09:33:05.671Z,45.80
2023-09-09T09:35:34.517Z,45.70
2023-09-09T09:38:07.302Z,45.30
2023-09-09T09:40:36.510Z,45.00
2023-09-09T09:43:04.181Z,44.80
2023-09-09T09:45:32.286Z,44.40
2023-09-09T09:48:00.681Z,43.90
2023-09-09T09:50:31.986Z,44.40
2023-09-09T09:53:02.895Z,44.70
2023-09-09T09:55:31.726Z,43.70
2023-09-09T09:58:01.728Z,43.50
2023-09-09T10:00:29.855Z,43.10
2023-09-09T10:02:59.065Z,44.50
2023-09-09T10:05:28.459Z,43.00
2023-09-09T10:08:07.708Z,42.90
2023-09-09T10:10:38.268Z,42.70
2023-09-09T10:13:11.528Z,42.20
2023-09-09T10:15:40.667Z,41.10
2023-09-09T10:18:08.617Z,40.70
2023-09-09T10:20:36.931Z,40.80
2023-09-09T10:23:05.780Z,40.80
2023-09-09T10:25:33.523Z,40.80
2023-09-09T10:28:03.043Z,40.90
2023-09-09T10:30:32.278Z,41.00
2023-09-09T10:33:03.014Z,40.70
2023-09-09T10:35:30.786Z,40.80
2023-09-09T10:37:59.606Z,41.70
2023-09-09T10:40:27.512Z,41.50
2023-09-09T10:42:55.127Z,40.50
2023-09-09T10:45:25.361Z,40.60
2023-09-09T10:47:54.914Z,40.40
2023-09-09T10:50:22.607Z,39.70
2023-09-09T10:52:52.778Z,39.20
2023-09-09T10:55:29.444Z,38.90
2023-09-09T10:57:58.511Z,38.90
2023-09-09T11:00:36.377Z,38.00
2023-09-09T11:03:04.147Z,38.00
2023-09-09T11:05:31.832Z,38.10
2023-09-09T11:07:59.349Z,38.60
2023-09-09T11:10:26.872Z,38.10
2023-09-09T11:12:57.620Z,38.60
2023-09-09T11:15:27.216Z,38.90
2023-09-09T11:17:54.806Z,39.10
2023-09-09T11:20:22.640Z,37.10
2023-09-09T11:22:50.436Z,36.70
2023-09-09T11:25:18.768Z,36.70
2023-09-09T11:27:47.207Z,37.80
2023-09-09T11:30:14.479Z,36.50
2023-09-09T11:32:42.155Z,36.90
2023-09-09T11:35:12.949Z,36.60
2023-09-09T11:37:40.918Z,36.20
2023-09-09T11:40:10.216Z,34.60
2023-09-09T11:42:52.363Z,34.40
2023-09-09T11:45:20.715Z,34.00
2023-09-09T11:47:49.285Z,33.40
2023-09-09T11:50:16.913Z,33.40
2023-09-09T11:52:44.479Z,34.10
2023-09-09T11:55:17.946Z,34.50
2023-09-09T11:57:48.302Z,34.80
2023-09-09T12:00:23.415Z,34.20
2023-09-09T12:02:50.956Z,33.90
2023-09-09T12:05:18.416Z,34.50
2023-09-09T12:07:47.253Z,34.80
2023-09-09T12:10:16.132Z,34.50
2023-09-09T12:12:44.803Z,34.30
2023-09-09T12:15:14.398Z,34.60
2023-09-09T12:17:42.175Z,35.30
2023-09-09T12:20:10.004Z,35.00
2023-09-09T12:22:47.772Z,35.40
2023-09-09T12:25:18.362Z,35.70
2023-09-09T12:27:46.760Z,35.40
2023-09-09T12:30:17.114Z,35.20
2023-09-09T12:32:44.557Z,35.30
2023-09-09T12:35:12.117Z,35.20
2023-09-09T12:37:39.575Z,35.40
2023-09-09T12:40:07.743Z,34.90
2023-09-09T12:42:35.164Z,34.90
2023-09-09T12:45:02.627Z,35.40
2023-09-09T12:47:31.400Z,35.50
2023-09-09T12:49:58.798Z,35.80
2023-09-09T12:52:33.175Z,35.80
2023-09-09T12:55:00.523Z,36.30
2023-09-09T12:57:28.395Z,36.70
2023-09-09T12:59:56.010Z,36.20
2023-09-09T13:02:23.491Z,36.10
2023-09-09T13:04:50.851Z,35.70
2023-09-09T13:07:19.913Z,35.40
2023-09-09T13:09:48.777Z,35.60
2023-09-09T13:12:16.115Z,35.30
2023-09-09T13:14:43.560Z,35.20
2023-09-09T13:17:10.896Z,35.30
2023-09-09T13:23:29.875Z,36.00
2023-09-09T13:25:57.312Z,35.60
2023-09-09T13:28:24.856Z,35.90
2023-09-09T13:30:52.163Z,35.40
2023-09-09T13:33:20.694Z,35.50
2023-09-09T13:35:48.162Z,34.90
2023-09-09T13:38:15.706Z,35.10
2023-09-09T13:40:43.188Z,35.20
2023-09-09T13:43:10.785Z,34.70
2023-09-09T13:45:38.271Z,35.00
2023-09-09T13:48:06.319Z,35.00
2023-09-09T13:50:33.743Z,34.80
2023-09-09T13:53:01.215Z,34.90
2023-09-09T13:55:28.969Z,34.90
2023-09-09T13:57:56.484Z,35.40
2023-09-09T14:00:23.831Z,36.00
2023-09-09T14:02:51.637Z,35.10
2023-09-09T14:05:19.336Z,35.20
2023-09-09T14:07:46.879Z,35.50
2023-09-09T14:10:14.355Z,35.90
2023-09-09T14:12:43.161Z,35.10
2023-09-09T14:15:12.561Z,34.60
2023-09-09T14:17:39.801Z,35.20
2023-09-09T14:20:07.962Z,35.20
2023-09-09T14:22:35.120Z,35.50
2023-09-09T14:25:02.410Z,34.80
2023-09-09T14:27:29.787Z,34.90
2023-09-09T14:29:57.027Z,35.20
2023-09-09T14:32:24.219Z,35.10
2023-09-09T14:34:51.687Z,34.50
2023-09-09T14:37:18.942Z,34.50
2023-09-09T14:39:46.208Z,34.20
2023-09-09T14:42:13.470Z,34.50
2023-09-09T14:44:40.788Z,34.70
2023-09-09T14:47:08.074Z,34.90
2023-09-09T14:49:38.506Z,34.80
2023-09-09T14:52:09.164Z,35.10
2023-09-09T14:54:37.190Z,35.60
2023-09-09T14:57:04.832Z,35.70
2023-09-09T14:59:32.403Z,35.50
2023-09-09T15:01:59.849Z,36.00
2023-09-09T15:04:27.175Z,36.00
2023-09-09T15:06:54.745Z,35.90
2023-09-09T15:09:22.092Z,36.20
2023-09-09T15:11:49.303Z,36.00
2023-09-09T15:14:16.756Z,36.20
2023-09-09T15:16:47.777Z,35.90
2023-09-09T15:19:15.301Z,36.10
2023-09-09T15:21:42.812Z,36.50
2023-09-09T15:24:10.270Z,36.40
2023-09-09T15:26:39.098Z,36.60
2023-09-09T15:29:07.627Z,36.20
2023-09-09T15:31:35.433Z,36.40
2023-09-09T15:34:03.262Z,36.40
2023-09-09T15:36:30.531Z,36.30
2023-09-09T15:38:57.901Z,36.70
2023-09-09T15:41:25.267Z,37.10
2023-09-09T15:43:52.631Z,36.30
2023-09-09T15:46:19.982Z,36.60
2023-09-09T15:48:47.383Z,36.40
2023-09-09T15:51:14.590Z,36.60
2023-09-09T15:53:41.904Z,36.20
2023-09-09T15:56:11.456Z,36.30
2023-09-09T15:58:41.277Z,36.40
2023-09-09T16:01:09.224Z,36.60
2023-09-09T16:03:38.499Z,37.20
2023-09-09T16:06:09.093Z,36.70
2023-09-09T16:08:39.409Z,36.50
2023-09-09T16:11:07.545Z,36.70
2023-09-09T16:13:34.946Z,36.90
2023-09-09T16:16:04.808Z,37.00
2023-09-09T16:18:33.326Z,37.20
2023-09-09T16:21:01.261Z,37.10
2023-09-09T16:23:29.406Z,37.30
2023-09-09T16:25:57.201Z,37.50
2023-09-09T16:28:25.911Z,37.60
2023-09-09T16:30:53.225Z,37.40
2023-09-09T16:33:20.677Z,37.50
2023-09-09T16:35:48.177Z,37.90
2023-09-09T16:38:15.600Z,37.90
2023-09-09T16:40:42.854Z,37.50
2023-09-09T16:43:10.122Z,37.20
2023-09-09T16:45:37.425Z,37.50
2023-09-09T16:48:06.126Z,37.80
2023-09-09T16:50:37.479Z,38.00
2023-09-09T16:53:05.742Z,38.20
2023-09-09T16:55:32.965Z,37.90
2023-09-09T16:58:00.324Z,38.40
2023-09-09T17:00:27.467Z,38.60
2023-09-09T17:02:54.744Z,38.10
2023-09-09T17:05:22.362Z,38.80
2023-09-09T17:07:50.957Z,38.70
2023-09-09T17:10:19.350Z,39.00
2023-09-09T17:12:46.660Z,38.70
2023-09-09T17:15:13.885Z,38.70
2023-09-09T17:17:41.210Z,39.20
2023-09-09T17:20:09.044Z,39.60
2023-09-09T17:22:36.375Z,39.60
2023-09-09T17:25:03.739Z,39.70
2023-09-09T17:27:30.955Z,39.90
2023-09-09T17:29:58.328Z,40.30
2023-09-09T17:32:25.717Z,41.00
2023-09-09T17:34:52.895Z,41.60
2023-09-09T17:37:20.325Z,42.30
2023-09-09T17:39:47.741Z,42.90
2023-09-09T17:42:15.122Z,42.70
2023-09-09T17:44:42.765Z,43.30
2023-09-09T17:47:10.149Z,43.60
2023-09-09T17:49:38.848Z,44.10
2023-09-09T17:52:07.145Z,44.70
2023-09-09T17:54:35.851Z,44.90
2023-09-09T17:57:03.439Z,45.00
2023-09-09T17:59:30.658Z,45.30
2023-09-09T18:01:57.993Z,45.90
2023-09-09T18:04:25.265Z,46.60
2023-09-09T18:06:52.590Z,46.20
2023-09-09T18:09:19.694Z,46.40
2023-09-09T18:11:47.018Z,46.60
2023-09-09T18:14:14.230Z,45.80
2023-09-09T18:16:41.526Z,46.70
2023-09-09T18:19:09.560Z,47.20
2023-09-09T18:21:36.875Z,47.10
2023-09-09T18:24:04.507Z,46.90
2023-09-09T18:26:31.914Z,47.10
2023-09-09T18:28:59.392Z,47.60
2023-09-09T18:31:26.833Z,46.80
2023-09-09T18:33:54.205Z,48.20
2023-09-09T18:36:21.386Z,47.40
2023-09-09T18:38:48.773Z,47.40
2023-09-09T18:41:16.014Z,48.30
2023-09-09T18:43:43.390Z,48.30
2023-09-09T18:46:10.758Z,48.60
2023-09-09T18:48:38.278Z,49.30
2023-09-09T18:51:05.955Z,49.40
2023-09-09T18:53:34.045Z,49.20
2023-09-09T18:56:01.277Z,49.00
2023-09-09T18:58:28.646Z,49.00
2023-09-09T19:00:56.309Z,48.50
2023-09-09T19:03:24.851Z,49.20
2023-09-09T19:05:52.505Z,49.20
2023-09-09T19:08:19.880Z,48.80
2023-09-09T19:10:47.163Z,49.90
2023-09-09T19:13:14.521Z,49.40
2023-09-09T19:15:42.029Z,49.60
2023-09-09T19:18:09.580Z,49.10
2023-09-09T19:20:37.783Z,49.40
2023-09-09T19:23:05.376Z,49.40
2023-09-09T19:25:35.422Z,49.40
2023-09-09T19:28:03.157Z,49.40
2023-09-09T19:30:30.325Z,49.50
2023-09-09T19:32:57.805Z,49.70
2023-09-09T19:35:25.139Z,49.80
2023-09-09T19:37:55.387Z,50.00
2023-09-09T19:40:23.409Z,50.20
2023-09-09T19:42:50.770Z,50.60
2023-09-09T19:45:17.941Z,50.50
2023-09-09T19:47:45.307Z,50.40
2023-09-09T19:50:12.988Z,50.10
2023-09-09T19:52:40.250Z,51.00
2023-09-09T19:55:08.996Z,51.50
2023-09-09T19:57:36.267Z,51.60
2023-09-09T20:00:05.770Z,51.20
2023-09-09T20:02:33.231Z,51.00
2023-09-09T20:05:00.578Z,51.20
2023-09-09T20:07:27.980Z,51.50
2023-09-09T20:10:09.420Z,51.30
2023-09-09T20:12:36.919Z,51.30
2023-09-09T20:15:04.415Z,51.40
2023-09-09T20:17:31.711Z,51.10
2023-09-09T20:19:59.472Z,51.40
2023-09-09T20:22:29.433Z,50.90
2023-09-09T20:24:57.010Z,51.20
2023-09-09T20:27:24.193Z,51.30
2023-09-09T20:29:51.406Z,51.30
2023-09-09T20:32:18.714Z,51.60
2023-09-09T20:34:52.222Z,51.00
2023-09-09T20:37:19.573Z,51.20
2023-09-09T20:39:46.776Z,51.30
2023-09-09T20:42:14.041Z,51.50
2023-09-09T20:44:41.345Z,51.60
2023-09-09T20:47:08.744Z,51.90
2023-09-09T20:49:35.996Z,51.60
2023-09-09T20:52:03.415Z,51.50
2023-09-09T20:54:30.543Z,51.60
2023-09-09T20:56:59.381Z,51.80
2023-09-09T20:59:26.582Z,51.80
2023-09-09T21:01:54.012Z,51.60
2023-09-09T21:04:21.340Z,51.50
2023-09-09T21:06:48.765Z,51.60
2023-09-09T21:09:16.452Z,51.70
2023-09-09T21:11:43.875Z,51.80
2023-09-09T21:14:11.534Z,52.10
2023-09-09T21:16:38.940Z,52.20
2023-09-09T21:19:06.159Z,52.20
2023-09-09T21:21:33.483Z,52.60
2023-09-09T21:24:00.572Z,52.70
2023-09-09T21:26:29.081Z,53.20
2023-09-09T21:28:56.364Z,53.30
2023-09-09T21:31:23.761Z,53.20
2023-09-09T21:33:50.902Z,53.00
2023-09-09T21:36:18.186Z,52.90
2023-09-09T21:38:46.221Z,52.90
2023-09-09T21:41:13.415Z,52.70
2023-09-09T21:43:40.631Z,52.60
2023-09-09T21:46:07.984Z,52.50
2023-09-09T21:48:35.303Z,52.60
2023-09-09T21:51:02.755Z,52.50
2023-09-09T21:53:31.359Z,52.50
2023-09-09T21:55:58.881Z,52.80
2023-09-09T21:58:26.249Z,53.20
2023-09-09T22:00:53.519Z,53.60
2023-09-09T22:03:20.916Z,53.50
2023-09-09T22:05:48.359Z,53.20
2023-09-09T22:08:15.945Z,52.90
2023-09-09T22:10:44.623Z,53.00
2023-09-09T22:13:11.870Z,53.00
2023-09-09T22:15:39.202Z,52.80
2023-09-09T22:18:06.451Z,52.70
2023-09-09T22:20:33.878Z,52.90
2023-09-09T22:23:01.368Z,52.70
2023-09-09T22:25:28.801Z,52.70
2023-09-09T22:27:56.150Z,52.90
2023-09-09T22:30:23.386Z,52.70
2023-09-09T22:32:50.583Z,53.10
2023-09-09T22:35:20.922Z,52.90
2023-09-09T22:37:48.284Z,52.90
2023-09-09T22:40:15.559Z,52.90
2023-09-09T22:42:42.929Z,53.20
2023-09-09T22:45:11.237Z,53.20
2023-09-09T22:47:39.067Z,54.30
2023-09-09T22:50:07.646Z,53.50
2023-09-09T22:52:34.956Z,53.50
2023-09-09T22:55:02.572Z,53.90
2023-09-09T22:57:29.970Z,54.00
2023-09-09T22:59:57.165Z,54.00
2023-09-09T23:02:24.478Z,53.90
2023-09-09T23:04:53.645Z,54.00
2023-09-09T23:07:21.618Z,53.70
2023-09-09T23:09:54.561Z,53.90
2023-09-09T23:12:22.149Z,54.20
2023-09-09T23:14:49.448Z,54.20
2023-09-09T23:17:16.753Z,54.30
2023-09-09T23:19:44.272Z,54.60
2023-09-09T23:22:11.548Z,54.70
2023-09-09T23:24:43.594Z,54.70
2023-09-09T23:27:10.889Z,54.70
2023-09-09T23:29:38.498Z,54.70
2023-09-09T23:32:06.292Z,54.80
2023-09-09T23:34:34.212Z,55.00
2023-09-09T23:37:02.499Z,55.10
2023-09-09T23:39:29.651Z,55.00
2023-09-09T23:41:56.961Z,55.10
2023-09-09T23:44:24.124Z,55.00
2023-09-09T23:46:51.498Z,55.50
2023-09-09T23:49:18.832Z,54.80
2023-09-09T23:51:46.049Z,54.80
2023-09-09T23:54:13.218Z,54.70
2023-09-09T23:56:40.520Z,54.70
2023-09-09T23:59:07.660Z,54.70
